createdAt,value
2022-12-17T00:00:00.375Z,35.45
2022-12-17T00:02:45.740Z,35.85
2022-12-17T00:05:30.719Z,32.67
2022-12-17T00:08:16.702Z,30.90
2022-12-17T00:11:01.898Z,34.67
2022-12-17T00:13:47.262Z,32.35
2022-12-17T00:16:40.261Z,34.08
2022-12-17T00:19:25.432Z,33.53
2022-12-17T00:22:16.074Z,35.35
2022-12-17T00:25:01.320Z,29.63
2022-12-17T00:27:46.560Z,33.75
2022-12-17T00:30:31.845Z,33.63
2022-12-17T00:33:18.519Z,33.58
2022-12-17T00:36:10.085Z,31.20
2022-12-17T00:38:56.182Z,33.08
2022-12-17T00:41:42.013Z,32.20
2022-12-17T00:44:27.420Z,35.55
2022-12-17T00:47:12.682Z,34.15
2022-12-17T00:49:59.010Z,35.25
2022-12-17T00:52:44.194Z,30.38
2022-12-17T00:55:29.591Z,27.40
2022-12-17T00:58:16.091Z,35.88
2022-12-17T01:01:02.015Z,33.20
2022-12-17T01:03:47.852Z,34.10
2022-12-17T01:06:34.329Z,31.77
2022-12-17T01:09:19.742Z,31.77
2022-12-17T01:12:05.174Z,33.30
2022-12-17T01:14:50.472Z,31.17
2022-12-17T01:17:35.881Z,33.10
2022-12-17T01:20:21.155Z,39.15
2022-12-17T01:23:07.915Z,34.50
2022-12-17T01:25:53.355Z,33.05
2022-12-17T01:28:42.051Z,36.55
2022-12-17T01:31:31.440Z,35.28
2022-12-17T01:34:19.865Z,33.38
2022-12-17T01:37:05.341Z,33.78
2022-12-17T01:39:51.963Z,29.75
2022-12-17T01:42:37.412Z,32.33
2022-12-17T01:45:23.344Z,33.35
2022-12-17T01:48:11.300Z,31.92
2022-12-17T01:51:00.171Z,30.98
2022-12-17T01:53:49.846Z,36.88
2022-12-17T01:56:36.593Z,30.35
2022-12-17T01:59:23.866Z,31.95
2022-12-17T02:02:09.266Z,30.58
2022-12-17T02:04:54.924Z,29.00
2022-12-17T02:07:53.464Z,35.28
2022-12-17T02:10:44.280Z,29.73
2022-12-17T02:13:38.001Z,31.92
2022-12-17T02:16:29.633Z,31.63
2022-12-17T02:19:20.866Z,29.83
2022-12-17T02:22:12.209Z,36.53
2022-12-17T02:25:05.681Z,32.17
2022-12-17T02:27:53.293Z,34.47
2022-12-17T02:30:46.964Z,32.30
2022-12-17T02:33:41.310Z,31.67
2022-12-17T02:36:27.171Z,32.47
2022-12-17T02:39:12.336Z,36.45
2022-12-17T02:42:10.532Z,32.22
2022-12-17T02:44:59.153Z,33.67
2022-12-17T02:47:44.636Z,31.20
2022-12-17T02:50:30.220Z,31.83
2022-12-17T02:53:18.564Z,31.35
2022-12-17T02:56:03.992Z,32.55
2022-12-17T02:58:49.335Z,32.47
2022-12-17T03:01:36.028Z,30.30
2022-12-17T03:04:21.315Z,37.83
2022-12-17T03:07:14.993Z,32.33
2022-12-17T03:10:00.269Z,37.08
2022-12-17T03:12:45.681Z,32.60
2022-12-17T03:15:30.983Z,33.88
2022-12-17T03:18:16.699Z,40.00
2022-12-17T03:21:02.147Z,32.72
2022-12-17T03:23:47.527Z,30.48
2022-12-17T03:26:32.733Z,31.48
2022-12-17T03:29:18.148Z,32.80
2022-12-17T03:32:03.360Z,28.88
2022-12-17T03:34:50.109Z,32.30
2022-12-17T03:37:35.553Z,31.48
2022-12-17T03:40:21.129Z,27.52
2022-12-17T03:43:06.270Z,31.23
2022-12-17T03:45:51.733Z,31.05
2022-12-17T03:48:36.945Z,33.10
2022-12-17T03:51:23.784Z,28.42
2022-12-17T03:54:09.106Z,28.60
2022-12-17T03:56:54.517Z,31.02
2022-12-17T03:59:39.834Z,36.58
2022-12-17T04:02:25.429Z,31.05
2022-12-17T04:05:15.073Z,32.33
2022-12-17T04:08:04.504Z,34.28
2022-12-17T04:10:49.910Z,32.28
2022-12-17T04:13:40.518Z,31.83
2022-12-17T04:16:26.345Z,33.80
2022-12-17T04:19:11.567Z,33.83
2022-12-17T04:22:02.265Z,30.13
2022-12-17T04:24:49.043Z,28.75
2022-12-17T04:27:34.215Z,32.33
2022-12-17T04:30:19.455Z,32.75
2022-12-17T04:33:04.754Z,34.80
2022-12-17T04:35:50.098Z,31.83
2022-12-17T04:38:50.209Z,36.03
2022-12-17T04:41:36.918Z,32.70
2022-12-17T04:44:22.010Z,30.63
2022-12-17T04:47:07.263Z,36.45
2022-12-17T04:49:52.436Z,30.67
2022-12-17T04:52:37.682Z,29.77
2022-12-17T04:55:22.942Z,33.05
2022-12-17T04:58:09.557Z,33.10
2022-12-17T05:00:54.763Z,34.92
2022-12-17T05:03:40.904Z,31.60
2022-12-17T05:06:27.558Z,29.25
2022-12-17T05:09:12.817Z,34.58
2022-12-17T05:11:58.114Z,36.85
2022-12-17T05:14:44.668Z,53.95
2022-12-17T05:17:29.777Z,53.90
2022-12-17T05:20:15.168Z,54.08
2022-12-17T05:23:02.687Z,62.40
2022-12-17T05:25:47.932Z,62.65
2022-12-17T05:28:33.296Z,64.28
2022-12-17T05:31:20.690Z,64.22
2022-12-17T05:34:05.926Z,68.72
2022-12-17T05:36:51.174Z,57.65
2022-12-17T05:39:36.505Z,57.70
2022-12-17T05:42:21.720Z,63.88
2022-12-17T05:45:07.050Z,60.47
2022-12-17T05:47:53.624Z,61.97
2022-12-17T05:50:38.896Z,61.45
2022-12-17T05:53:24.643Z,61.25
2022-12-17T05:56:10.903Z,64.22
2022-12-17T05:58:56.256Z,57.05
2022-12-17T06:01:41.708Z,75.28
2022-12-17T06:04:29.394Z,68.28
2022-12-17T06:07:14.644Z,73.07
2022-12-17T06:10:00.113Z,81.10
2022-12-17T06:12:45.428Z,60.47
2022-12-17T06:15:31.077Z,62.00
2022-12-17T06:18:17.220Z,65.10
2022-12-17T06:21:04.600Z,65.70
2022-12-17T06:23:50.104Z,67.10
2022-12-17T06:26:35.586Z,70.20
2022-12-17T06:29:21.092Z,66.00
2022-12-17T06:32:06.086Z,69.57
2022-12-17T06:34:51.391Z,66.95
2022-12-17T06:37:38.101Z,58.35
2022-12-17T06:40:32.589Z,63.60
2022-12-17T06:43:17.916Z,65.82
2022-12-17T06:46:03.353Z,63.30
2022-12-17T06:48:48.851Z,66.38
2022-12-17T06:51:34.004Z,65.70
2022-12-17T06:54:20.584Z,65.03
2022-12-17T06:57:05.934Z,73.15
2022-12-17T06:59:59.684Z,73.63
2022-12-17T07:02:45.101Z,65.00
2022-12-17T07:05:30.368Z,59.78
2022-12-17T07:08:16.276Z,71.40
2022-12-17T07:11:03.278Z,69.97
2022-12-17T07:13:48.859Z,64.93
2022-12-17T07:16:34.228Z,63.13
2022-12-17T07:19:27.023Z,77.65
2022-12-17T07:22:12.896Z,65.80
2022-12-17T07:24:58.275Z,64.38
2022-12-17T07:27:44.997Z,63.88
2022-12-17T07:30:30.909Z,68.45
2022-12-17T07:33:19.806Z,64.70
2022-12-17T07:36:05.048Z,57.35
2022-12-17T07:38:51.470Z,70.65
2022-12-17T07:41:36.719Z,65.82
2022-12-17T07:44:23.471Z,63.90
2022-12-17T07:47:08.673Z,67.32
2022-12-17T07:49:54.476Z,63.17
2022-12-17T07:52:39.800Z,67.05
2022-12-17T07:55:25.209Z,70.75
2022-12-17T07:58:17.051Z,70.35
2022-12-17T08:01:03.773Z,70.22
2022-12-17T08:03:49.177Z,95.22
2022-12-17T08:06:34.849Z,67.35
2022-12-17T08:09:20.229Z,74.35
2022-12-17T08:12:05.257Z,73.93
2022-12-17T08:14:50.593Z,77.22
2022-12-17T08:17:37.400Z,73.78
2022-12-17T08:20:23.578Z,76.18
2022-12-17T08:23:08.727Z,71.57
2022-12-17T08:25:54.162Z,65.45
2022-12-17T08:28:50.550Z,75.40
2022-12-17T08:31:37.045Z,66.78
2022-12-17T08:34:23.698Z,84.47
2022-12-17T08:37:09.042Z,79.47
2022-12-17T08:39:54.476Z,72.03
2022-12-17T08:42:39.979Z,79.65
2022-12-17T08:45:26.008Z,75.50
2022-12-17T08:48:11.151Z,72.50
2022-12-17T08:50:57.990Z,73.20
2022-12-17T08:53:43.376Z,71.78
2022-12-17T08:56:28.600Z,74.07
2022-12-17T08:59:13.888Z,66.05
2022-12-17T09:01:59.493Z,70.00
2022-12-17T09:04:44.925Z,69.18
2022-12-17T09:07:31.607Z,67.60
2022-12-17T09:10:17.132Z,66.47
2022-12-17T09:13:05.186Z,70.93
2022-12-17T09:15:51.374Z,67.53
2022-12-17T09:18:38.012Z,60.80
2022-12-17T09:21:24.157Z,62.13
2022-12-17T09:24:10.581Z,65.07
2022-12-17T09:26:55.965Z,63.63
2022-12-17T09:29:41.189Z,67.93
2022-12-17T09:32:26.715Z,64.38
2022-12-17T09:35:26.535Z,63.13
2022-12-17T09:38:12.480Z,66.40
2022-12-17T09:41:04.201Z,64.13
2022-12-17T09:44:00.781Z,65.18
2022-12-17T09:46:51.853Z,59.00
2022-12-17T09:49:41.118Z,66.95
2022-12-17T09:52:37.527Z,58.30
2022-12-17T09:55:33.804Z,61.50
2022-12-17T09:58:22.592Z,65.70
2022-12-17T10:01:08.480Z,67.68
2022-12-17T10:03:55.273Z,69.53
2022-12-17T10:06:58.223Z,61.85
2022-12-17T10:09:47.299Z,60.90
2022-12-17T10:12:34.726Z,51.80
2022-12-17T10:15:21.910Z,59.28
2022-12-17T10:18:07.101Z,57.35
2022-12-17T10:20:57.942Z,51.75
2022-12-17T10:23:44.817Z,57.65
2022-12-17T10:26:35.964Z,63.75
2022-12-17T10:29:28.443Z,61.92
2022-12-17T10:32:18.735Z,60.90
2022-12-17T10:35:05.827Z,61.40
2022-12-17T10:37:53.954Z,59.67
2022-12-17T10:40:44.655Z,59.40
2022-12-17T10:43:44.331Z,58.47
2022-12-17T10:46:29.725Z,58.08
2022-12-17T10:49:29.813Z,58.47
2022-12-17T10:52:19.192Z,67.55
2022-12-17T10:55:15.123Z,68.75
2022-12-17T10:58:01.838Z,60.80
2022-12-17T11:00:50.840Z,66.28
2022-12-17T11:03:44.183Z,61.90
2022-12-17T11:06:37.498Z,54.17
2022-12-17T11:09:37.071Z,69.03
2022-12-17T11:12:30.275Z,61.63
2022-12-17T11:15:19.768Z,56.47
2022-12-17T11:18:11.150Z,58.63
2022-12-17T11:21:06.258Z,53.95
2022-12-17T11:23:55.334Z,53.13
2022-12-17T11:26:43.719Z,72.10
2022-12-17T11:29:31.104Z,60.80
2022-12-17T11:32:34.076Z,58.88
2022-12-17T11:35:28.528Z,57.08
2022-12-17T11:38:22.651Z,62.30
2022-12-17T11:41:13.893Z,56.72
2022-12-17T11:44:10.377Z,73.25
2022-12-17T11:47:07.405Z,63.65
2022-12-17T11:50:03.472Z,64.68
2022-12-17T11:52:55.750Z,65.35
2022-12-17T11:55:48.184Z,64.93
2022-12-17T11:58:44.599Z,73.57
2022-12-17T12:01:38.749Z,71.68
2022-12-17T12:04:37.424Z,72.53
2022-12-17T12:07:44.898Z,73.53
2022-12-17T12:10:36.411Z,69.95
2022-12-17T12:13:36.848Z,66.80
2022-12-17T12:16:31.658Z,65.07
2022-12-17T12:19:30.738Z,63.15
2022-12-17T12:22:20.077Z,63.70
2022-12-17T12:25:18.145Z,66.05
2022-12-17T12:28:13.066Z,72.22
2022-12-17T12:31:11.074Z,67.90
2022-12-17T12:34:06.300Z,76.95
2022-12-17T12:36:52.584Z,71.43
2022-12-17T12:39:42.857Z,78.60
2022-12-17T12:42:36.754Z,75.75
2022-12-17T12:45:31.932Z,76.38
2022-12-17T12:48:22.101Z,74.80
2022-12-17T12:51:17.348Z,67.30
2022-12-17T12:54:02.588Z,78.47
2022-12-17T12:56:52.120Z,76.03
2022-12-17T12:59:45.098Z,72.38
2022-12-17T13:02:44.301Z,72.68
2022-12-17T13:05:33.917Z,70.90
2022-12-17T13:08:23.822Z,82.45
2022-12-17T13:10:54.142Z,77.55
2022-12-17T13:13:37.234Z,80.38
2022-12-17T13:16:17.527Z,66.78
2022-12-17T13:18:45.685Z,78.90
2022-12-17T13:21:27.095Z,78.78
2022-12-17T13:23:56.409Z,73.10
2022-12-17T13:26:31.247Z,75.25
2022-12-17T13:29:02.530Z,80.93
2022-12-17T13:31:41.361Z,73.95
2022-12-17T13:34:20.595Z,68.50
2022-12-17T13:36:55.921Z,70.72
2022-12-17T13:39:35.907Z,77.95
2022-12-17T13:42:03.894Z,70.38
2022-12-17T13:44:39.896Z,76.93
2022-12-17T13:47:21.837Z,158.55
2022-12-17T13:50:24.418Z,71.30
2022-12-17T13:52:40.200Z,81.28
2022-12-17T13:55:18.626Z,73.63
2022-12-17T13:57:47.417Z,79.13
2022-12-17T14:00:22.125Z,79.65
2022-12-17T14:02:50.262Z,79.22
2022-12-17T14:05:25.461Z,78.15
2022-12-17T14:07:53.952Z,69.65
2022-12-17T14:10:23.066Z,73.75
2022-12-17T14:12:51.126Z,77.10
2022-12-17T14:15:25.412Z,77.22
2022-12-17T14:17:55.115Z,81.47
2022-12-17T14:20:25.386Z,83.88
2022-12-17T14:22:55.765Z,88.80
2022-12-17T14:25:27.223Z,97.63
2022-12-17T14:27:57.178Z,96.50
2022-12-17T14:30:31.963Z,89.88
2022-12-17T14:32:59.720Z,81.55
2022-12-17T14:35:30.096Z,87.35
2022-12-17T14:37:57.854Z,107.53
2022-12-17T14:40:27.706Z,98.25
2022-12-17T14:43:01.544Z,101.82
2022-12-17T14:45:30.229Z,90.20
2022-12-17T14:48:00.324Z,89.82
2022-12-17T14:50:32.112Z,102.57
2022-12-17T14:53:01.720Z,95.78
2022-12-17T14:55:37.472Z,99.20
2022-12-17T14:58:22.485Z,83.90
2022-12-17T15:00:53.640Z,90.78
2022-12-17T15:03:26.194Z,93.18
2022-12-17T15:05:58.031Z,89.88
2022-12-17T15:08:26.442Z,89.07
2022-12-17T15:10:56.691Z,82.95
2022-12-17T15:13:24.354Z,87.22
2022-12-17T15:15:52.087Z,85.38
2022-12-17T15:18:19.747Z,86.88
2022-12-17T15:20:47.649Z,100.93
2022-12-17T15:23:18.062Z,88.82
2022-12-17T15:25:47.201Z,89.97
2022-12-17T15:28:17.628Z,89.78
2022-12-17T15:30:45.843Z,112.95
2022-12-17T15:33:14.184Z,105.93
2022-12-17T15:35:43.900Z,126.68
2022-12-17T15:38:13.434Z,128.05
2022-12-17T15:40:41.552Z,139.48
2022-12-17T15:43:13.316Z,117.45
2022-12-17T15:45:44.243Z,110.15
2022-12-17T15:48:13.422Z,111.93
2022-12-17T15:50:41.983Z,106.15
2022-12-17T15:53:10.197Z,95.53
2022-12-17T15:55:39.194Z,96.63
2022-12-17T15:58:07.790Z,112.75
2022-12-17T16:00:36.107Z,89.88
2022-12-17T16:03:05.342Z,92.20
2022-12-17T16:05:33.295Z,93.55
2022-12-17T16:08:02.625Z,85.05
2022-12-17T16:10:31.108Z,99.70
2022-12-17T16:12:58.836Z,93.70
2022-12-17T16:15:26.674Z,105.03
2022-12-17T16:17:54.404Z,98.07
2022-12-17T16:20:24.103Z,107.90
2022-12-17T16:22:51.798Z,105.05
2022-12-17T16:25:19.615Z,113.18
2022-12-17T16:27:47.309Z,106.70
2022-12-17T16:30:15.489Z,109.72
2022-12-17T16:32:43.300Z,106.85
2022-12-17T16:35:11.166Z,111.85
2022-12-17T16:37:40.294Z,103.00
2022-12-17T16:40:09.225Z,95.18
2022-12-17T16:42:36.937Z,109.97
2022-12-17T16:45:05.295Z,104.93
2022-12-17T16:47:33.217Z,121.15
2022-12-17T16:50:01.014Z,110.85
2022-12-17T16:52:28.667Z,107.30
2022-12-17T16:54:58.409Z,110.57
2022-12-17T16:57:26.236Z,103.00
2022-12-17T16:59:54.047Z,103.90
2022-12-17T17:02:21.960Z,100.88
2022-12-17T17:04:49.951Z,104.80
2022-12-17T17:07:17.703Z,100.78
2022-12-17T17:09:47.962Z,112.95
2022-12-17T17:12:17.067Z,94.82
2022-12-17T17:14:44.886Z,99.25
2022-12-17T17:17:12.804Z,100.53
2022-12-17T17:19:40.705Z,101.10
2022-12-17T17:22:08.638Z,107.00
2022-12-17T17:24:36.388Z,104.68
2022-12-17T17:27:04.295Z,103.10
2022-12-17T17:29:33.538Z,99.05
2022-12-17T17:32:16.869Z,102.35
2022-12-17T17:34:44.580Z,98.07
2022-12-17T17:37:12.471Z,93.15
2022-12-17T17:39:40.376Z,103.75
2022-12-17T17:42:08.140Z,109.70
2022-12-17T17:44:38.289Z,104.53
2022-12-17T17:47:06.168Z,112.25
2022-12-17T17:49:33.849Z,111.25
2022-12-17T17:52:10.244Z,102.70
2022-12-17T17:54:39.464Z,113.43
2022-12-17T17:57:07.331Z,104.22
2022-12-17T17:59:34.973Z,105.05
2022-12-17T18:02:04.598Z,107.72
2022-12-17T18:04:32.964Z,91.95
2022-12-17T18:09:48.322Z,110.95
2022-12-17T18:12:33.351Z,105.18
2022-12-17T18:15:18.118Z,124.32
2022-12-17T18:17:50.584Z,105.10
2022-12-17T18:20:18.722Z,103.80
2022-12-17T18:22:47.284Z,104.90
2022-12-17T18:25:15.394Z,104.03
2022-12-17T18:27:43.068Z,111.93
2022-12-17T18:30:11.702Z,102.45
2022-12-17T18:32:39.411Z,111.32
2022-12-17T18:35:09.616Z,100.28
2022-12-17T18:37:37.541Z,102.32
2022-12-17T18:40:06.070Z,110.38
2022-12-17T18:42:51.260Z,106.68
2022-12-17T18:45:19.013Z,97.45
2022-12-17T18:47:46.908Z,108.47
2022-12-17T18:50:16.017Z,117.53
2022-12-17T18:52:43.634Z,113.15
2022-12-17T18:55:11.516Z,110.97
2022-12-17T18:57:42.346Z,117.20
2022-12-17T19:00:11.607Z,118.90
2022-12-17T19:02:39.596Z,127.07
2022-12-17T19:05:07.889Z,112.32
2022-12-17T19:07:37.105Z,111.53
2022-12-17T19:10:05.514Z,133.43
2022-12-17T19:12:38.896Z,119.05
2022-12-17T19:15:07.427Z,121.28
2022-12-17T19:17:35.264Z,116.32
2022-12-17T19:20:03.096Z,116.30
2022-12-17T19:22:31.136Z,119.35
2022-12-17T19:25:00.514Z,113.22
2022-12-17T19:27:28.842Z,113.93
2022-12-17T19:29:57.137Z,109.00
2022-12-17T19:32:26.006Z,118.90
2022-12-17T19:34:54.080Z,113.85
2022-12-17T19:37:21.832Z,131.32
2022-12-17T19:39:50.676Z,119.50
2022-12-17T19:42:25.633Z,107.43
2022-12-17T19:44:55.454Z,117.65
2022-12-17T19:47:24.025Z,114.45
2022-12-17T19:49:52.101Z,105.93
2022-12-17T19:52:20.147Z,114.68
2022-12-17T19:54:47.905Z,99.50
2022-12-17T19:57:15.643Z,110.57
2022-12-17T19:59:44.616Z,120.35
2022-12-17T20:02:12.573Z,116.13
2022-12-17T20:04:40.460Z,123.22
2022-12-17T20:07:08.238Z,106.38
2022-12-17T20:09:35.989Z,115.15
2022-12-17T20:12:03.763Z,110.60
2022-12-17T20:14:31.531Z,105.28
2022-12-17T20:17:02.481Z,106.32
2022-12-17T20:19:32.306Z,108.40
2022-12-17T20:22:01.681Z,102.25
2022-12-17T20:24:31.964Z,114.03
2022-12-17T20:27:00.973Z,110.53
2022-12-17T20:29:29.333Z,113.32
2022-12-17T20:31:57.249Z,100.03
2022-12-17T20:34:26.621Z,111.78
2022-12-17T20:36:54.802Z,118.13
2022-12-17T20:39:27.248Z,106.47
2022-12-17T20:41:56.179Z,115.30
2022-12-17T20:44:23.976Z,107.85
2022-12-17T20:46:52.008Z,105.13
2022-12-17T20:49:19.719Z,114.07
2022-12-17T20:51:48.785Z,102.78
2022-12-17T20:54:16.526Z,107.97
2022-12-17T20:56:44.283Z,106.65
2022-12-17T20:59:15.601Z,115.93
2022-12-17T21:01:44.523Z,96.68
2022-12-17T21:04:13.936Z,105.30
2022-12-17T21:06:43.262Z,107.22
2022-12-17T21:09:14.039Z,99.55
2022-12-17T21:11:43.598Z,92.38
2022-12-17T21:14:13.286Z,112.95
2022-12-17T21:16:41.953Z,105.28
2022-12-17T21:19:11.115Z,103.60
2022-12-17T21:21:39.385Z,88.35
2022-12-17T21:24:08.566Z,94.47
2022-12-17T21:26:39.932Z,98.97
2022-12-17T21:29:08.955Z,91.82
2022-12-17T21:31:40.412Z,89.90
2022-12-17T21:34:11.807Z,103.63
2022-12-17T21:36:40.721Z,91.63
2022-12-17T21:39:10.517Z,90.72
2022-12-17T21:41:43.657Z,103.97
2022-12-17T21:44:15.348Z,98.80
2022-12-17T21:46:43.697Z,97.40
2022-12-17T21:49:15.851Z,94.88
2022-12-17T21:51:43.944Z,91.13
2022-12-17T21:54:17.273Z,92.72
2022-12-17T21:56:48.967Z,92.25
2022-12-17T21:59:16.897Z,95.90
2022-12-17T22:01:44.911Z,90.30
2022-12-17T22:04:13.065Z,96.72
2022-12-17T22:06:46.969Z,92.63
2022-12-17T22:09:26.821Z,101.63
2022-12-17T22:12:24.007Z,95.18
2022-12-17T22:14:51.732Z,95.47
2022-12-17T22:17:19.903Z,93.80
2022-12-17T22:19:47.597Z,87.00
2022-12-17T22:22:15.350Z,98.28
2022-12-17T22:24:43.063Z,89.97
2022-12-17T22:27:12.271Z,95.53
2022-12-17T22:29:57.285Z,91.20
2022-12-17T22:32:42.538Z,87.47
2022-12-17T22:36:13.075Z,99.53
2022-12-17T22:40:52.360Z,91.95
2022-12-17T22:44:30.801Z,87.38
2022-12-17T22:44:46.139Z,96.03
2022-12-17T22:46:23.111Z,80.47
2022-12-17T22:48:50.791Z,90.25
2022-12-17T22:51:26.571Z,97.88
2022-12-17T22:53:57.111Z,88.03
2022-12-17T22:56:51.694Z,90.60
2022-12-17T22:59:16.498Z,91.45
2022-12-17T23:01:44.763Z,93.75
2022-12-17T23:04:14.656Z,94.70
2022-12-17T23:06:45.253Z,92.55
2022-12-17T23:09:13.016Z,91.43
2022-12-17T23:11:40.695Z,95.90
2022-12-17T23:14:09.111Z,93.10
2022-12-17T23:16:40.450Z,84.82
2022-12-17T23:19:08.754Z,87.95
2022-12-17T23:21:36.695Z,86.03
2022-12-17T23:24:05.038Z,93.88
2022-12-17T23:26:34.717Z,98.53
2022-12-17T23:29:05.073Z,90.25
2022-12-17T23:31:35.234Z,94.07
2022-12-17T23:34:04.622Z,84.65
2022-12-17T23:36:32.485Z,84.32
2022-12-17T23:39:00.713Z,99.43
2022-12-17T23:41:31.905Z,82.47
2022-12-17T23:44:00.148Z,88.40
2022-12-17T23:46:30.138Z,84.72
2022-12-17T23:48:58.192Z,87.85
2022-12-17T23:51:28.143Z,93.47
2022-12-17T23:53:55.782Z,91.28
2022-12-17T23:56:27.569Z,87.05
2022-12-17T23:58:59.223Z,86.47
